createdAt,value
2018-08-28T00:00:30.932Z,8.20
2018-08-28T00:01:31.063Z,6.40
2018-08-28T00:02:31.200Z,7.40
2018-08-28T00:03:31.415Z,7.00
2018-08-28T00:04:31.451Z,8.90
2018-08-28T00:05:31.586Z,7.40
2018-08-28T00:06:31.730Z,7.30
2018-08-28T00:07:31.892Z,8.30
2018-08-28T00:08:32.024Z,9.00
2018-08-28T00:09:32.172Z,8.90
2018-08-28T00:10:32.311Z,7.60
2018-08-28T00:11:32.472Z,7.00
2018-08-28T00:12:32.597Z,7.90
2018-08-28T00:13:32.740Z,6.50
2018-08-28T00:14:32.879Z,7.80
2018-08-28T00:15:33.016Z,8.00
2018-08-28T00:16:33.142Z,6.70
2018-08-28T00:17:33.278Z,7.90
2018-08-28T00:18:33.421Z,7.30
2018-08-28T00:19:33.554Z,6.70
2018-08-28T00:20:33.711Z,8.60
2018-08-28T00:21:33.849Z,6.20
2018-08-28T00:22:33.991Z,6.20
2018-08-28T00:23:34.148Z,6.40
2018-08-28T00:24:34.260Z,5.60
2018-08-28T00:25:34.401Z,6.20
2018-08-28T00:26:34.543Z,6.00
2018-08-28T00:27:34.696Z,6.60
2018-08-28T00:28:34.878Z,5.70
2018-08-28T00:29:35.025Z,6.80
2018-08-28T00:30:35.152Z,7.20
2018-08-28T00:31:35.288Z,6.60
2018-08-28T00:32:35.443Z,9.00
2018-08-28T00:33:35.577Z,7.00
2018-08-28T00:34:35.728Z,7.60
2018-08-28T00:35:35.884Z,8.20
2018-08-28T00:36:36.045Z,8.70
2018-08-28T00:37:36.183Z,8.50
2018-08-28T00:38:36.324Z,9.50
2018-08-28T00:39:36.459Z,8.20
2018-08-28T00:40:36.603Z,10.00
2018-08-28T00:41:36.734Z,9.10
2018-08-28T00:42:36.876Z,10.60
2018-08-28T00:43:37.010Z,9.80
2018-08-28T00:44:37.151Z,8.50
2018-08-28T00:45:37.284Z,9.80
2018-08-28T00:46:37.424Z,7.80
2018-08-28T00:47:37.561Z,9.20
2018-08-28T00:48:37.698Z,8.20
2018-08-28T00:49:37.837Z,9.50
2018-08-28T00:50:37.979Z,12.00
2018-08-28T00:51:38.117Z,9.40
2018-08-28T00:52:38.292Z,10.40
2018-08-28T00:53:38.425Z,8.80
2018-08-28T00:54:38.563Z,8.30
2018-08-28T00:55:38.705Z,7.30
2018-08-28T00:56:38.840Z,8.80
2018-08-28T00:57:38.971Z,10.40
2018-08-28T00:58:39.114Z,10.20
2018-08-28T00:59:39.256Z,9.80
2018-08-28T01:00:39.391Z,9.30
2018-08-28T01:01:39.532Z,7.70
2018-08-28T01:02:39.665Z,11.20
2018-08-28T01:03:39.799Z,9.30
2018-08-28T01:04:39.942Z,9.30
2018-08-28T01:05:40.077Z,8.20
2018-08-28T01:06:40.217Z,10.80
2018-08-28T01:07:40.371Z,11.30
2018-08-28T01:08:40.507Z,8.80
2018-08-28T01:09:40.649Z,9.80
2018-08-28T01:10:40.796Z,8.80
2018-08-28T01:11:40.932Z,8.60
2018-08-28T01:12:41.085Z,9.50
2018-08-28T01:13:41.206Z,10.20
2018-08-28T01:14:41.422Z,9.10
2018-08-28T01:15:41.496Z,11.70
2018-08-28T01:16:41.633Z,13.30
2018-08-28T01:17:41.867Z,10.50
2018-08-28T01:18:41.924Z,9.90
2018-08-28T01:19:42.064Z,14.00
2018-08-28T01:20:42.222Z,10.60
2018-08-28T01:21:42.357Z,9.90
2018-08-28T01:22:42.489Z,11.40
2018-08-28T01:23:42.671Z,10.20
2018-08-28T01:24:42.806Z,11.20
2018-08-28T01:25:42.943Z,12.30
2018-08-28T01:26:43.083Z,9.90
2018-08-28T01:27:43.239Z,11.10
2018-08-28T01:28:43.370Z,10.10
2018-08-28T01:29:43.505Z,10.60
2018-08-28T01:30:43.647Z,11.90
2018-08-28T01:31:43.784Z,12.40
2018-08-28T01:32:43.915Z,11.90
2018-08-28T01:33:44.051Z,10.20
2018-08-28T01:34:44.217Z,13.20
2018-08-28T01:35:44.349Z,11.40
2018-08-28T01:36:44.487Z,10.50
2018-08-28T01:37:44.624Z,12.10
2018-08-28T01:38:44.768Z,13.20
2018-08-28T01:39:44.902Z,12.00
2018-08-28T01:40:45.044Z,10.60
2018-08-28T01:41:45.190Z,11.20
2018-08-28T01:42:45.343Z,11.10
2018-08-28T01:43:45.480Z,11.20
2018-08-28T01:44:45.612Z,8.80
2018-08-28T01:45:45.749Z,11.40
2018-08-28T01:46:45.899Z,12.10
2018-08-28T01:47:46.034Z,10.30
2018-08-28T01:48:46.174Z,12.10
2018-08-28T01:49:46.317Z,10.90
2018-08-28T01:50:46.463Z,9.60
2018-08-28T01:51:46.600Z,11.80
2018-08-28T01:52:46.738Z,9.70
2018-08-28T01:53:46.918Z,11.60
2018-08-28T01:54:47.019Z,10.40
2018-08-28T01:55:47.153Z,11.30
2018-08-28T01:56:47.287Z,10.60
2018-08-28T01:57:47.424Z,11.70
2018-08-28T01:58:47.617Z,11.30
2018-08-28T01:59:47.756Z,11.90
2018-08-28T02:00:47.896Z,9.90
2018-08-28T02:01:48.030Z,9.60
2018-08-28T02:02:48.181Z,10.30
2018-08-28T02:03:48.311Z,10.90
2018-08-28T02:04:48.456Z,11.90
2018-08-28T02:05:48.592Z,10.70
2018-08-28T02:06:48.726Z,10.00
2018-08-28T02:07:48.868Z,12.10
2018-08-28T02:08:49.009Z,11.00
2018-08-28T02:09:49.143Z,9.80
2018-08-28T02:10:49.284Z,11.50
2018-08-28T02:11:49.423Z,11.90
2018-08-28T02:12:49.562Z,11.10
2018-08-28T02:13:49.697Z,12.10
2018-08-28T02:14:49.838Z,10.70
2018-08-28T02:15:49.987Z,10.30
2018-08-28T02:16:50.148Z,12.90
2018-08-28T02:17:50.285Z,10.90
2018-08-28T02:18:50.423Z,11.40
2018-08-28T02:19:50.565Z,10.00
2018-08-28T02:20:50.703Z,12.40
2018-08-28T02:21:50.841Z,9.10
2018-08-28T02:22:50.976Z,11.00
2018-08-28T02:23:51.120Z,12.40
2018-08-28T02:24:51.257Z,12.00
2018-08-28T02:25:51.411Z,11.80
2018-08-28T02:26:51.549Z,11.60
2018-08-28T02:27:51.686Z,10.40
2018-08-28T02:28:51.834Z,10.80
2018-08-28T02:29:51.965Z,9.30
2018-08-28T02:30:52.113Z,11.10
2018-08-28T02:31:52.255Z,11.40
2018-08-28T02:32:52.388Z,12.20
2018-08-28T02:33:52.524Z,11.90
2018-08-28T02:34:52.657Z,11.40
2018-08-28T02:35:52.792Z,9.90
2018-08-28T02:36:52.934Z,10.10
2018-08-28T02:37:53.078Z,11.00
2018-08-28T02:38:53.216Z,10.80
2018-08-28T02:39:53.371Z,11.30
2018-08-28T02:40:53.506Z,11.50
2018-08-28T02:41:53.647Z,12.50
2018-08-28T02:42:53.837Z,11.90
2018-08-28T02:43:53.948Z,14.70
2018-08-28T02:44:54.080Z,12.40
2018-08-28T02:45:54.224Z,13.30
2018-08-28T02:46:54.363Z,12.60
2018-08-28T02:47:54.492Z,11.60
2018-08-28T02:48:54.634Z,11.80
2018-08-28T02:49:54.790Z,14.40
2018-08-28T02:50:54.924Z,11.40
2018-08-28T02:51:55.057Z,12.40
2018-08-28T02:52:55.194Z,12.60
2018-08-28T02:53:55.341Z,12.50
2018-08-28T02:54:55.478Z,11.40
2018-08-28T02:55:55.613Z,10.80
2018-08-28T02:56:55.784Z,11.30
2018-08-28T02:57:55.922Z,11.40
2018-08-28T02:58:56.047Z,10.90
2018-08-28T02:59:56.193Z,10.10
2018-08-28T03:00:56.345Z,11.60
2018-08-28T03:01:56.478Z,10.10
2018-08-28T03:02:56.672Z,12.10
2018-08-28T03:03:56.756Z,11.40
2018-08-28T03:04:56.971Z,12.60
2018-08-28T03:05:57.061Z,12.50
2018-08-28T03:06:57.204Z,11.80
2018-08-28T03:07:57.338Z,13.50
2018-08-28T03:08:57.491Z,11.80
2018-08-28T03:09:57.629Z,10.90
2018-08-28T03:10:57.769Z,12.50
2018-08-28T03:11:57.912Z,12.00
2018-08-28T03:12:58.051Z,11.20
2018-08-28T03:13:58.187Z,11.70
2018-08-28T03:14:58.338Z,10.60
2018-08-28T03:15:58.528Z,10.30
2018-08-28T03:16:58.603Z,11.00
2018-08-28T03:17:58.760Z,10.10
2018-08-28T03:18:58.895Z,9.80
2018-08-28T03:19:59.032Z,10.70
2018-08-28T03:20:59.174Z,10.60
2018-08-28T03:21:59.318Z,10.20
2018-08-28T03:22:59.456Z,10.70
2018-08-28T03:23:59.594Z,10.00
2018-08-28T03:24:59.762Z,11.30
2018-08-28T03:25:59.892Z,10.90
2018-08-28T03:27:00.034Z,11.70
2018-08-28T03:28:00.194Z,10.40
2018-08-28T03:29:00.346Z,11.00
2018-08-28T03:30:00.470Z,12.80
2018-08-28T03:31:00.627Z,11.20
2018-08-28T03:32:00.763Z,12.60
2018-08-28T03:33:00.927Z,10.30
2018-08-28T03:34:01.069Z,12.00
2018-08-28T03:35:01.204Z,12.50
2018-08-28T03:36:01.337Z,11.60
2018-08-28T03:37:01.469Z,12.30
2018-08-28T03:38:01.604Z,11.90
2018-08-28T03:39:01.742Z,13.60
2018-08-28T03:40:01.884Z,13.60
2018-08-28T03:41:02.021Z,15.80
2018-08-28T03:42:02.160Z,15.80
2018-08-28T03:43:02.297Z,15.30
2018-08-28T03:44:02.436Z,15.70
2018-08-28T03:45:02.577Z,13.60
2018-08-28T03:46:02.707Z,13.90
2018-08-28T03:47:02.847Z,15.60
2018-08-28T03:48:02.989Z,14.50
2018-08-28T03:49:03.131Z,12.90
2018-08-28T03:50:03.304Z,14.10
2018-08-28T03:51:03.464Z,17.60
2018-08-28T03:52:03.602Z,13.50
2018-08-28T03:53:03.738Z,12.80
2018-08-28T03:54:03.874Z,12.40
2018-08-28T03:55:04.016Z,15.20
2018-08-28T03:56:04.152Z,13.50
2018-08-28T03:57:04.291Z,13.50
2018-08-28T03:58:04.435Z,13.20
2018-08-28T03:59:04.567Z,13.00
2018-08-28T04:00:04.698Z,13.10
2018-08-28T04:01:04.839Z,11.30
2018-08-28T04:02:04.977Z,11.60
2018-08-28T04:03:05.107Z,12.00
2018-08-28T04:04:05.249Z,11.30
2018-08-28T04:05:05.395Z,11.90
2018-08-28T04:06:05.535Z,12.60
2018-08-28T04:07:05.677Z,12.70
2018-08-28T04:08:05.813Z,12.70
2018-08-28T04:09:05.964Z,12.40
2018-08-28T04:10:06.101Z,12.10
2018-08-28T04:11:06.238Z,12.90
2018-08-28T04:12:06.373Z,12.90
2018-08-28T04:13:06.515Z,13.40
2018-08-28T04:14:06.661Z,11.90
2018-08-28T04:15:06.797Z,11.90
2018-08-28T04:16:06.941Z,13.00
2018-08-28T04:17:07.094Z,12.10
2018-08-28T04:18:07.216Z,12.50
2018-08-28T04:19:07.355Z,11.60
2018-08-28T04:20:07.488Z,11.80
2018-08-28T04:21:07.647Z,12.30
2018-08-28T04:22:07.779Z,13.70
2018-08-28T04:23:07.921Z,13.40
2018-08-28T04:24:08.060Z,12.90
2018-08-28T04:25:08.229Z,13.40
2018-08-28T04:26:08.355Z,12.10
2018-08-28T04:27:08.495Z,13.40
2018-08-28T04:28:08.641Z,11.50
2018-08-28T04:29:08.789Z,14.00
2018-08-28T04:30:08.922Z,13.00
2018-08-28T04:31:09.068Z,13.70
2018-08-28T04:32:09.234Z,13.30
2018-08-28T04:33:09.370Z,12.40
2018-08-28T04:34:09.507Z,12.10
2018-08-28T04:35:09.654Z,13.00
2018-08-28T04:36:09.807Z,14.40
2018-08-28T04:37:09.943Z,11.70
2018-08-28T04:38:10.082Z,11.90
2018-08-28T04:39:10.250Z,13.10
2018-08-28T04:40:10.382Z,11.80
2018-08-28T04:41:10.524Z,13.50
2018-08-28T04:42:10.680Z,12.00
2018-08-28T04:43:10.813Z,12.90
2018-08-28T04:44:10.955Z,10.90
2018-08-28T04:45:11.085Z,10.90
2018-08-28T04:46:11.213Z,10.40
2018-08-28T04:47:11.347Z,13.10
2018-08-28T04:48:11.480Z,11.10
2018-08-28T04:49:11.621Z,13.10
2018-08-28T04:50:11.777Z,11.80
2018-08-28T04:51:11.912Z,12.90
2018-08-28T04:52:12.051Z,12.40
2018-08-28T04:53:12.215Z,11.80
2018-08-28T04:54:12.460Z,12.70
2018-08-28T04:55:12.486Z,12.50
2018-08-28T04:56:12.642Z,12.30
2018-08-28T04:57:12.773Z,12.10
2018-08-28T04:58:12.906Z,12.10
2018-08-28T04:59:13.053Z,13.30
2018-08-28T05:00:13.188Z,12.30
2018-08-28T05:01:13.343Z,11.50
2018-08-28T05:02:13.479Z,10.30
2018-08-28T05:03:13.618Z,12.50
2018-08-28T05:04:13.759Z,14.70
2018-08-28T05:05:13.913Z,12.40
2018-08-28T05:06:14.052Z,11.70
2018-08-28T05:07:14.190Z,12.40
2018-08-28T05:08:14.337Z,13.30
2018-08-28T05:09:14.473Z,12.60
2018-08-28T05:10:14.603Z,13.80
2018-08-28T05:11:14.752Z,12.40
2018-08-28T05:12:14.890Z,14.10
2018-08-28T05:13:15.053Z,12.80
2018-08-28T05:14:15.205Z,14.60
2018-08-28T05:15:15.345Z,14.00
2018-08-28T05:16:15.476Z,13.90
2018-08-28T05:17:15.616Z,15.40
2018-08-28T05:18:15.758Z,11.80
2018-08-28T05:19:15.931Z,12.40
2018-08-28T05:20:16.030Z,11.60
2018-08-28T05:21:16.169Z,12.50
2018-08-28T05:22:16.311Z,13.60
2018-08-28T05:23:16.443Z,13.50
2018-08-28T05:24:16.582Z,13.20
2018-08-28T05:25:16.721Z,14.00
2018-08-28T05:26:16.852Z,11.50
2018-08-28T05:27:16.988Z,13.20
2018-08-28T05:28:17.126Z,10.90
2018-08-28T05:29:17.265Z,10.80
2018-08-28T05:30:17.478Z,12.70
2018-08-28T05:31:17.487Z,14.10
2018-08-28T05:32:17.625Z,12.60
2018-08-28T05:33:17.759Z,13.20
2018-08-28T05:34:17.936Z,11.80
2018-08-28T05:35:18.071Z,13.10
2018-08-28T05:36:18.206Z,13.70
2018-08-28T05:37:18.339Z,11.80
2018-08-28T05:38:18.477Z,12.40
2018-08-28T05:39:18.617Z,14.40
2018-08-28T05:40:19.323Z,14.10
2018-08-28T05:41:18.854Z,13.90
2018-08-28T05:42:18.995Z,13.30
2018-08-28T05:43:19.133Z,13.90
2018-08-28T05:44:19.269Z,13.20
2018-08-28T05:45:19.398Z,13.70
2018-08-28T05:46:19.530Z,13.80
2018-08-28T05:47:19.666Z,14.80
2018-08-28T05:48:19.837Z,12.00
2018-08-28T05:49:20.842Z,13.40
2018-08-28T05:50:20.196Z,12.90
2018-08-28T05:51:20.329Z,16.90
2018-08-28T05:52:20.471Z,13.80
2018-08-28T05:53:20.603Z,15.70
2018-08-28T05:54:20.742Z,13.70
2018-08-28T05:55:20.911Z,12.90
2018-08-28T05:56:21.155Z,14.10
2018-08-28T05:57:21.177Z,16.30
2018-08-28T05:58:21.312Z,14.00
2018-08-28T05:59:21.484Z,13.20
2018-08-28T06:00:21.609Z,14.20
2018-08-28T06:01:21.752Z,14.30
2018-08-28T06:02:22.592Z,14.30
2018-08-28T06:03:22.268Z,14.90
2018-08-28T06:04:22.185Z,14.00
2018-08-28T06:05:22.322Z,13.80
2018-08-28T06:06:22.482Z,14.90
2018-08-28T06:07:22.622Z,15.20
2018-08-28T06:08:22.772Z,14.20
2018-08-28T06:09:22.895Z,16.10
2018-08-28T06:10:23.026Z,13.60
2018-08-28T06:11:23.167Z,16.40
2018-08-28T06:12:23.422Z,15.20
2018-08-28T06:13:23.566Z,14.60
2018-08-28T06:14:23.577Z,13.80
2018-08-28T06:15:23.714Z,13.00
2018-08-28T06:16:23.870Z,12.40
2018-08-28T06:17:24.008Z,12.60
2018-08-28T06:18:24.147Z,13.00
2018-08-28T06:19:25.121Z,15.90
2018-08-28T06:20:24.418Z,15.90
2018-08-28T06:21:24.551Z,17.60
2018-08-28T06:22:24.693Z,23.60
2018-08-28T06:23:24.855Z,30.60
2018-08-28T06:24:24.991Z,33.80
2018-08-28T06:25:25.122Z,25.60
2018-08-28T06:26:25.313Z,30.70
2018-08-28T06:27:25.407Z,31.00
2018-08-28T06:28:25.541Z,23.70
2018-08-28T06:29:25.673Z,15.90
2018-08-28T06:30:25.816Z,16.30
2018-08-28T06:31:25.983Z,18.40
2018-08-28T06:32:26.117Z,24.10
2018-08-28T06:33:26.256Z,24.20
2018-08-28T06:34:26.396Z,17.00
2018-08-28T06:35:26.549Z,18.10
2018-08-28T06:36:26.788Z,18.90
2018-08-28T06:37:26.828Z,14.60
2018-08-28T06:38:26.948Z,24.70
2018-08-28T06:39:27.102Z,23.10
2018-08-28T06:40:27.228Z,24.70
2018-08-28T06:41:27.365Z,24.10
2018-08-28T06:42:27.508Z,29.00
2018-08-28T06:43:27.685Z,24.40
2018-08-28T06:44:27.793Z,23.00
2018-08-28T06:45:27.935Z,24.10
2018-08-28T06:46:28.070Z,20.40
2018-08-28T06:47:28.235Z,23.90
2018-08-28T06:48:28.368Z,18.90
2018-08-28T06:49:28.553Z,17.50
2018-08-28T06:50:28.645Z,17.20
2018-08-28T06:51:28.795Z,16.90
2018-08-28T06:52:28.944Z,17.70
2018-08-28T06:53:29.096Z,15.30
2018-08-28T06:54:29.224Z,14.50
2018-08-28T06:55:29.364Z,13.70
2018-08-28T06:56:29.500Z,17.30
2018-08-28T06:57:29.670Z,18.40
2018-08-28T06:58:29.804Z,17.70
2018-08-28T06:59:29.940Z,16.70
2018-08-28T07:00:30.083Z,15.70
2018-08-28T07:01:30.257Z,16.80
2018-08-28T07:02:30.505Z,13.30
2018-08-28T07:03:30.518Z,16.60
2018-08-28T07:04:30.650Z,12.70
2018-08-28T07:05:30.797Z,15.30
2018-08-28T07:06:30.919Z,15.80
2018-08-28T07:07:31.057Z,16.50
2018-08-28T07:08:31.238Z,14.50
2018-08-28T07:09:31.421Z,16.80
2018-08-28T07:10:31.555Z,16.10
2018-08-28T07:11:31.694Z,14.10
2018-08-28T07:12:31.829Z,14.70
2018-08-28T07:13:32.008Z,15.40
2018-08-28T07:14:32.144Z,17.90
2018-08-28T07:15:32.281Z,12.10
2018-08-28T07:16:32.414Z,15.00
2018-08-28T07:17:32.598Z,14.40
2018-08-28T07:18:32.824Z,14.20
2018-08-28T07:19:32.822Z,17.70
2018-08-28T07:20:32.954Z,16.80
2018-08-28T07:21:33.103Z,14.70
2018-08-28T07:22:33.236Z,15.70
2018-08-28T07:23:33.379Z,15.80
2018-08-28T07:24:33.514Z,15.00
2018-08-28T07:25:33.694Z,16.30
2018-08-28T07:26:33.803Z,14.70
2018-08-28T07:27:33.950Z,12.40
2018-08-28T07:28:34.089Z,17.10
2018-08-28T07:29:34.217Z,15.80
2018-08-28T07:30:34.355Z,15.70
2018-08-28T07:31:34.500Z,13.50
2018-08-28T07:32:34.635Z,12.10
2018-08-28T07:33:34.768Z,15.40
2018-08-28T07:34:34.907Z,14.60
2018-08-28T07:35:35.054Z,11.80
2018-08-28T07:36:35.190Z,14.10
2018-08-28T07:37:35.539Z,12.70
2018-08-28T07:38:35.458Z,13.10
2018-08-28T07:39:35.606Z,11.60
2018-08-28T07:40:35.743Z,11.60
2018-08-28T07:41:35.881Z,10.80
2018-08-28T07:42:36.568Z,11.50
2018-08-28T07:43:36.229Z,12.70
2018-08-28T07:44:36.376Z,12.20
2018-08-28T07:45:36.509Z,10.20
2018-08-28T07:46:36.645Z,10.30
2018-08-28T07:47:36.789Z,10.20
2018-08-28T07:48:36.928Z,10.20
2018-08-28T07:49:37.065Z,9.20
2018-08-28T07:50:37.204Z,9.30
2018-08-28T07:51:37.335Z,11.90
2018-08-28T07:52:37.484Z,9.20
2018-08-28T07:53:37.619Z,9.90
2018-08-28T07:54:37.758Z,9.30
2018-08-28T07:55:37.904Z,8.40
2018-08-28T07:56:38.038Z,9.20
2018-08-28T07:57:38.179Z,8.60
2018-08-28T07:58:38.314Z,9.70
2018-08-28T07:59:38.454Z,9.50
2018-08-28T08:00:38.627Z,9.30
2018-08-28T08:01:38.762Z,7.80
2018-08-28T08:02:38.905Z,9.40
2018-08-28T08:03:39.048Z,9.80
2018-08-28T08:04:39.187Z,8.80
2018-08-28T08:05:39.329Z,7.90
2018-08-28T08:06:39.466Z,8.70
2018-08-28T08:07:39.604Z,7.30
2018-08-28T08:08:39.761Z,7.50
2018-08-28T08:09:39.898Z,8.20
2018-08-28T08:10:40.040Z,7.10
2018-08-28T08:11:40.177Z,9.80
2018-08-28T08:12:40.326Z,11.00
2018-08-28T08:13:40.460Z,7.60
2018-08-28T08:14:40.602Z,9.00
2018-08-28T08:15:40.763Z,8.90
2018-08-28T08:16:40.889Z,8.00
2018-08-28T08:17:41.021Z,7.50
2018-08-28T08:18:41.159Z,9.30
2018-08-28T08:19:41.328Z,8.00
2018-08-28T08:20:41.458Z,9.90
2018-08-28T08:21:41.595Z,7.70
2018-08-28T08:22:41.743Z,7.30
2018-08-28T08:23:41.889Z,8.60
2018-08-28T08:24:42.025Z,6.90
2018-08-28T08:25:42.159Z,8.30
2018-08-28T08:26:42.295Z,7.40
2018-08-28T08:27:42.566Z,8.60
2018-08-28T08:28:42.531Z,12.90
2018-08-28T08:29:42.673Z,9.30
2018-08-28T08:30:42.814Z,9.70
2018-08-28T08:31:43.008Z,11.00
2018-08-28T08:32:43.583Z,9.10
2018-08-28T08:33:43.270Z,9.00
2018-08-28T08:34:43.411Z,11.50
2018-08-28T08:35:43.584Z,6.40
2018-08-28T08:36:43.722Z,8.90
2018-08-28T08:37:43.853Z,9.20
2018-08-28T08:38:43.999Z,7.80
2018-08-28T08:39:44.156Z,7.10
2018-08-28T08:40:44.289Z,7.20
2018-08-28T08:41:44.433Z,7.90
2018-08-28T08:42:44.567Z,6.60
2018-08-28T08:43:44.721Z,7.80
2018-08-28T08:44:44.867Z,8.30
2018-08-28T08:45:44.999Z,7.20
2018-08-28T08:46:45.140Z,6.60
2018-08-28T08:47:45.287Z,6.20
2018-08-28T08:48:45.427Z,6.50
2018-08-28T08:49:45.565Z,6.80
2018-08-28T08:50:45.712Z,6.30
2018-08-28T08:51:45.846Z,6.40
2018-08-28T08:52:45.985Z,7.50
2018-08-28T08:53:46.122Z,6.30
2018-08-28T08:54:46.321Z,6.50
2018-08-28T08:55:46.457Z,6.10
2018-08-28T08:56:46.589Z,6.30
2018-08-28T08:57:46.731Z,6.90
2018-08-28T08:58:46.921Z,7.40
2018-08-28T08:59:47.095Z,6.40
2018-08-28T09:00:47.236Z,5.50
2018-08-28T09:01:47.376Z,6.40
2018-08-28T09:02:47.560Z,6.10
2018-08-28T09:03:47.683Z,5.40
2018-08-28T09:04:47.822Z,9.90
2018-08-28T09:05:47.958Z,6.30
2018-08-28T09:06:48.124Z,7.70
2018-08-28T09:07:48.260Z,9.60
2018-08-28T09:08:48.400Z,5.40
2018-08-28T09:09:48.533Z,7.30
2018-08-28T09:10:48.693Z,6.90
2018-08-28T09:11:48.914Z,6.10
2018-08-28T09:12:48.926Z,6.00
2018-08-28T09:13:49.099Z,7.80
2018-08-28T09:14:49.265Z,8.70
2018-08-28T09:15:49.453Z,7.20
2018-08-28T09:16:49.591Z,6.10
2018-08-28T09:17:49.735Z,8.90
2018-08-28T09:18:49.882Z,8.30
2018-08-28T09:19:50.019Z,6.30
2018-08-28T09:20:50.160Z,6.20
2018-08-28T09:21:50.306Z,7.00
2018-08-28T09:22:50.459Z,7.90
2018-08-28T09:23:50.591Z,5.90
2018-08-28T09:24:50.733Z,5.50
2018-08-28T09:25:50.906Z,6.00
2018-08-28T09:26:51.046Z,6.70
2018-08-28T09:27:51.190Z,5.70
2018-08-28T09:28:51.337Z,6.70
2018-08-28T09:29:51.477Z,6.90
2018-08-28T09:30:51.613Z,6.00
2018-08-28T09:31:51.754Z,6.50
2018-08-28T09:32:51.894Z,5.80
2018-08-28T09:33:52.030Z,7.50
2018-08-28T09:34:52.167Z,5.00
2018-08-28T09:35:52.302Z,5.90
2018-08-28T09:36:52.458Z,6.50
2018-08-28T09:37:52.603Z,6.70
2018-08-28T09:38:52.820Z,6.10
2018-08-28T09:39:52.873Z,5.90
2018-08-28T09:40:53.011Z,7.10
2018-08-28T09:41:53.150Z,5.30
2018-08-28T09:42:53.798Z,6.60
2018-08-28T09:45:25.426Z,8.10
2018-08-28T09:46:25.561Z,6.70
2018-08-28T09:47:25.701Z,6.90
2018-08-28T09:48:25.912Z,7.50
2018-08-28T09:49:25.983Z,6.40
2018-08-28T09:50:26.212Z,8.80
2018-08-28T09:51:26.254Z,7.50
2018-08-28T09:52:26.395Z,10.10
2018-08-28T09:53:26.530Z,8.90
2018-08-28T09:54:26.669Z,7.50
2018-08-28T09:55:26.809Z,6.50
2018-08-28T09:56:26.974Z,6.30
2018-08-28T09:57:27.085Z,21.00
2018-08-28T09:58:27.223Z,19.20
2018-08-28T09:59:27.363Z,23.80
2018-08-28T10:00:27.507Z,13.60
2018-08-28T10:01:27.650Z,17.00
2018-08-28T10:02:27.796Z,11.90
2018-08-28T10:03:27.933Z,13.90
2018-08-28T10:04:28.076Z,7.90
2018-08-28T10:05:28.215Z,6.60
2018-08-28T10:06:28.355Z,6.30
2018-08-28T10:07:28.494Z,6.60
2018-08-28T10:08:28.642Z,6.70
2018-08-28T10:09:28.782Z,6.30
2018-08-28T10:10:28.924Z,5.50
2018-08-28T10:11:29.066Z,6.20
2018-08-28T10:12:29.236Z,7.10
2018-08-28T10:13:29.369Z,6.30
2018-08-28T10:14:29.508Z,8.50
2018-08-28T10:15:29.648Z,7.30
2018-08-28T10:16:29.819Z,7.70
2018-08-28T10:17:30.034Z,6.90
2018-08-28T10:18:30.090Z,5.50
2018-08-28T10:19:30.228Z,5.80
2018-08-28T10:20:30.394Z,7.20
2018-08-28T10:21:30.537Z,6.30
2018-08-28T10:22:30.679Z,7.60
2018-08-28T10:23:30.820Z,5.90
2018-08-28T10:24:30.985Z,6.00
2018-08-28T10:25:31.121Z,5.70
2018-08-28T10:26:31.260Z,6.60
2018-08-28T10:27:31.454Z,6.40
2018-08-28T10:28:31.624Z,6.10
2018-08-28T10:29:31.821Z,7.60
2018-08-28T10:30:31.931Z,5.10
2018-08-28T10:31:31.984Z,4.80
2018-08-28T10:32:32.140Z,5.20
2018-08-28T10:33:32.271Z,5.40
2018-08-28T10:34:32.414Z,4.80
2018-08-28T10:35:32.554Z,5.50
2018-08-28T10:36:32.715Z,6.10
2018-08-28T10:37:32.845Z,6.10
2018-08-28T10:38:33.002Z,6.30
2018-08-28T10:39:33.143Z,4.90
2018-08-28T10:40:33.320Z,6.10
2018-08-28T10:41:33.538Z,5.30
2018-08-28T10:42:33.553Z,7.40
2018-08-28T10:43:33.694Z,6.80
2018-08-28T10:44:33.878Z,6.00
2018-08-28T10:45:34.014Z,6.20
2018-08-28T10:46:34.283Z,15.40
2018-08-28T10:47:34.298Z,17.10
2018-08-28T10:48:34.454Z,13.10
2018-08-28T10:49:34.582Z,19.50
2018-08-28T10:50:34.723Z,5.90
2018-08-28T10:51:34.869Z,5.10
2018-08-28T10:52:35.014Z,6.40
2018-08-28T10:53:35.152Z,5.60
2018-08-28T10:54:35.292Z,5.10
2018-08-28T10:55:35.433Z,5.60
2018-08-28T10:56:35.605Z,6.40
2018-08-28T10:57:35.757Z,5.90
2018-08-28T10:58:35.951Z,6.30
2018-08-28T10:59:36.028Z,7.80
2018-08-28T11:00:36.158Z,7.10
2018-08-28T11:01:36.298Z,8.00
2018-08-28T11:02:36.434Z,5.20
2018-08-28T11:03:36.596Z,6.20
2018-08-28T11:04:36.766Z,5.10
2018-08-28T11:05:36.883Z,5.70
2018-08-28T11:06:37.060Z,5.10
2018-08-28T11:07:37.187Z,5.80
2018-08-28T11:08:37.382Z,5.60
2018-08-28T11:09:37.468Z,6.40
2018-08-28T11:10:37.628Z,7.10
2018-08-28T11:11:37.767Z,5.10
2018-08-28T11:12:37.915Z,5.20
2018-08-28T11:13:38.074Z,5.50
2018-08-28T11:14:38.216Z,5.60
2018-08-28T11:15:38.355Z,6.40
2018-08-28T11:16:38.491Z,6.40
2018-08-28T11:17:38.670Z,6.80
2018-08-28T11:18:38.810Z,4.70
2018-08-28T11:19:38.953Z,5.10
2018-08-28T11:20:39.111Z,6.40
2018-08-28T11:21:39.273Z,5.20
2018-08-28T11:22:39.404Z,5.60
2018-08-28T11:23:39.547Z,6.00
2018-08-28T11:24:39.690Z,5.70
2018-08-28T11:25:39.840Z,5.10
2018-08-28T11:26:39.978Z,6.80
2018-08-28T11:27:40.129Z,6.00
2018-08-28T11:28:40.276Z,5.80
2018-08-28T11:29:40.423Z,8.00
2018-08-28T11:30:40.562Z,6.20
2018-08-28T11:31:40.701Z,5.30
2018-08-28T11:32:40.856Z,5.90
2018-08-28T11:33:41.007Z,6.10
2018-08-28T11:34:41.149Z,7.00
2018-08-28T11:35:41.304Z,7.10
2018-08-28T11:36:41.432Z,8.20
2018-08-28T11:37:41.570Z,5.70
2018-08-28T11:38:41.792Z,5.90
2018-08-28T11:39:41.796Z,5.50
2018-08-28T11:40:41.941Z,6.60
2018-08-28T11:41:42.088Z,5.90
2018-08-28T11:42:42.228Z,7.10
2018-08-28T11:43:42.375Z,6.70
2018-08-28T11:44:42.536Z,5.70
2018-08-28T11:45:42.687Z,6.20
2018-08-28T11:46:42.831Z,6.80
2018-08-28T11:47:42.975Z,5.30
2018-08-28T11:48:43.117Z,5.20
2018-08-28T11:49:43.256Z,5.50
2018-08-28T11:50:43.403Z,5.30
2018-08-28T11:51:43.547Z,5.10
2018-08-28T11:52:43.848Z,5.00
2018-08-28T11:53:43.842Z,5.20
2018-08-28T11:54:43.984Z,4.70
2018-08-28T11:55:44.139Z,4.50
2018-08-28T11:56:44.278Z,5.50
2018-08-28T11:57:44.425Z,5.50
2018-08-28T11:58:44.569Z,5.70
2018-08-28T11:59:44.718Z,6.40
2018-08-28T12:00:44.866Z,5.90
2018-08-28T12:01:45.007Z,4.80
2018-08-28T12:02:45.146Z,5.20
2018-08-28T12:03:45.301Z,4.30
2018-08-28T12:04:45.494Z,5.30
2018-08-28T12:05:45.591Z,6.50
2018-08-28T12:06:45.750Z,4.70
2018-08-28T12:07:45.961Z,5.50
2018-08-28T12:08:46.026Z,4.70
2018-08-28T12:09:46.165Z,4.90
2018-08-28T12:10:46.315Z,4.30
2018-08-28T12:11:46.481Z,5.70
2018-08-28T12:12:46.633Z,4.70
2018-08-28T12:13:46.777Z,4.70
2018-08-28T12:14:46.943Z,5.90
2018-08-28T12:15:47.092Z,4.80
2018-08-28T12:16:47.244Z,4.70
2018-08-28T12:17:47.392Z,4.80
2018-08-28T12:18:47.542Z,4.80
2018-08-28T12:19:47.753Z,4.60
2018-08-28T12:20:47.887Z,4.40
2018-08-28T12:21:48.022Z,7.00
2018-08-28T12:22:48.169Z,4.00
2018-08-28T12:23:48.322Z,4.10
2018-08-28T12:24:48.464Z,5.30
2018-08-28T12:25:48.620Z,5.30
2018-08-28T12:26:48.906Z,4.60
2018-08-28T12:27:48.957Z,6.50
2018-08-28T12:28:49.102Z,4.50
2018-08-28T12:29:49.410Z,4.40
2018-08-28T12:30:49.421Z,5.90
2018-08-28T12:31:49.564Z,5.20
2018-08-28T12:32:49.770Z,4.30
2018-08-28T12:33:49.916Z,4.30
2018-08-28T12:34:50.098Z,4.00
2018-08-28T12:35:50.243Z,5.70
2018-08-28T12:36:50.456Z,4.30
2018-08-28T12:37:50.559Z,4.20
2018-08-28T12:38:50.735Z,4.20
2018-08-28T12:39:50.894Z,4.40
2018-08-28T12:40:51.047Z,4.70
2018-08-28T12:41:51.260Z,4.90
2018-08-28T12:42:51.284Z,5.20
2018-08-28T12:43:51.435Z,4.50
2018-08-28T12:44:51.583Z,4.20
2018-08-28T12:45:51.737Z,5.80
2018-08-28T12:46:51.939Z,4.60
2018-08-28T12:47:52.063Z,4.40
2018-08-28T12:48:52.220Z,5.20
2018-08-28T12:49:52.363Z,5.80
2018-08-28T12:50:52.608Z,5.00
2018-08-28T12:51:52.733Z,6.50
2018-08-28T12:52:52.892Z,4.00
2018-08-28T12:53:53.048Z,5.00
2018-08-28T12:54:53.278Z,4.60
2018-08-28T12:55:53.370Z,6.00
2018-08-28T12:56:53.517Z,4.80
2018-08-28T12:57:53.664Z,5.40
2018-08-28T12:58:53.842Z,5.00
2018-08-28T12:59:53.990Z,6.00
2018-08-28T13:00:54.167Z,4.80
2018-08-28T13:01:54.317Z,4.80
2018-08-28T13:02:54.467Z,5.20
2018-08-28T13:03:54.700Z,4.80
2018-08-28T13:04:54.722Z,5.30
2018-08-28T13:05:54.870Z,5.00
2018-08-28T13:06:55.034Z,6.00
2018-08-28T13:07:55.175Z,6.20